Terminal Aerodrome Forecast
Issued by NWS Northern Indiana

Home | Current Version | Previous Version | Text Only | Print | Product List | Glossary Off
Versions: 1 2 3 4 5 6 7 8 9 10 11 12 13 14 15 16 17 18 19 20

000
FTUS43 KIWX 261700
TAFFWA
TAF
KFWA 261720Z 2618/2718 23008KT P6SM SCT025 BKN040
     FM270200 25006KT P6SM VCSH BKN040
      TEMPO 2703/2707 3SM TSRA OVC020CB
     FM270900 21005KT 5SM BR OVC015=

USA.gov is the U.S. government's official web portal to all federal, state and local government web resources and services.